Time;durP1;ratioP1;P1;durP2;ratioP2;P2;SDS_P1;SDS_P2;PMS_P1;PMS_P2;Temp;Humidity;BMP_temperature;BMP_pressure;BME280_temperature;BME280_humidity;BME280_pressure;Samples;Min_cycle;Max_cycle;Signal;HPM_P1;HPM_P2
2022/06/30 00:01:26;;;;;;;14.63;11.35;;;20.30;99.90;;;;;;5051501;28;20039;-73
2022/06/30 00:03:52;;;;;;;14.52;12.73;;;20.30;99.90;;;;;;5065529;28;20045;-73
2022/06/30 00:06:18;;;;;;;14.15;12.68;;;19.90;99.90;;;;;;5064806;28;20024;-73
2022/06/30 00:08:43;;;;;;;15.30;13.48;;;19.60;99.90;;;;;;5044819;28;20021;-73
2022/06/30 00:11:09;;;;;;;15.85;12.77;;;19.40;99.90;;;;;;5053455;28;20087;-73
2022/06/30 00:13:37;;;;;;;15.85;12.95;;;19.30;99.90;;;;;;5065347;28;20115;-73
2022/06/30 00:16:03;;;;;;;14.80;13.18;;;19.40;99.90;;;;;;5051964;28;20547;-73
2022/06/30 00:18:29;;;;;;;17.55;13.27;;;19.50;99.90;;;;;;5040738;28;20036;-73
2022/06/30 00:20:54;;;;;;;13.85;12.35;;;19.40;99.90;;;;;;5058541;28;20021;-73
2022/06/30 00:23:20;;;;;;;16.27;13.20;;;19.50;99.90;;;;;;5047276;28;20021;-73
2022/06/30 00:25:45;;;;;;;18.58;15.15;;;19.50;99.90;;;;;;5046892;28;20357;-73
2022/06/30 00:28:11;;;;;;;15.77;13.55;;;19.10;99.90;;;;;;5040417;28;20043;-73
2022/06/30 00:30:36;;;;;;;15.63;12.98;;;18.90;99.90;;;;;;5053782;28;20040;-73
2022/06/30 00:33:02;;;;;;;16.90;13.90;;;19.10;99.90;;;;;;5064948;28;20036;-73
2022/06/30 00:35:27;;;;;;;17.58;14.13;;;19.30;99.90;;;;;;5051631;28;20104;-73
2022/06/30 00:37:53;;;;;;;15.90;13.00;;;19.50;99.90;;;;;;5065022;28;20025;-73
2022/06/30 00:40:19;;;;;;;14.27;12.77;;;19.50;99.90;;;;;;5041670;28;20017;-73
2022/06/30 00:42:45;;;;;;;13.57;12.13;;;19.50;99.90;;;;;;5053423;28;20098;-73
2022/06/30 00:45:10;;;;;;;14.43;12.65;;;19.60;99.90;;;;;;5053589;28;20107;-74
2022/06/30 00:47:36;;;;;;;16.15;13.38;;;19.40;99.90;;;;;;5058220;28;20028;-74
2022/06/30 00:50:02;;;;;;;16.88;12.88;;;19.50;99.90;;;;;;5041167;28;20082;-74
2022/06/30 00:52:30;;;;;;;16.25;14.23;;;19.60;99.90;;;;;;5050861;28;20086;-75
2022/06/30 00:54:57;;;;;;;14.57;12.38;;;19.50;99.90;;;;;;5050694;28;20024;-74
2022/06/30 00:57:23;;;;;;;15.85;13.18;;;19.80;99.90;;;;;;5056685;28;20463;-75
2022/06/30 00:59:52;;;;;;;16.15;13.05;;;19.70;99.90;;;;;;5058884;28;20025;-75
2022/06/30 01:02:19;;;;;;;16.30;13.15;;;19.60;99.90;;;;;;5050825;28;20031;-75
2022/06/30 01:04:46;;;;;;;16.08;13.35;;;19.40;99.90;;;;;;5064515;28;20092;-75
2022/06/30 01:07:15;;;;;;;15.00;13.48;;;19.60;99.90;;;;;;5044569;28;20065;-75
2022/06/30 01:12:43;;;;;;;18.05;11.98;;;19.60;99.90;;;;;;5061501;28;20618;-74
2022/06/30 01:15:19;;;;;;;17.05;12.05;;;19.40;99.90;;;;;;5061847;28;20104;-74
2022/06/30 01:17:46;;;;;;;19.63;15.07;;;19.30;99.90;;;;;;5053539;28;20028;-75
2022/06/30 01:20:13;;;;;;;20.20;14.70;;;19.30;99.90;;;;;;5048973;28;20036;-75
2022/06/30 01:22:39;;;;;;;18.42;13.75;;;19.40;99.90;;;;;;5057587;28;20557;-75
2022/06/30 01:25:06;;;;;;;19.02;14.65;;;19.40;99.90;;;;;;5071261;28;20104;-75
2022/06/30 01:27:33;;;;;;;20.05;15.40;;;19.20;99.90;;;;;;5047391;28;20072;-75
2022/06/30 01:29:58;;;;;;;16.48;14.25;;;19.20;99.90;;;;;;5031335;28;20079;-75
2022/06/30 01:32:25;;;;;;;20.17;14.25;;;19.00;99.90;;;;;;5026195;28;20029;-75
2022/06/30 01:34:52;;;;;;;17.08;14.90;;;19.20;99.90;;;;;;5054193;28;20024;-75
2022/06/30 01:37:18;;;;;;;20.23;15.32;;;19.20;99.90;;;;;;5058324;28;20414;-75
2022/06/30 01:39:44;;;;;;;20.95;15.73;;;19.20;99.90;;;;;;5051684;28;20048;-73
2022/06/30 01:42:09;;;;;;;19.75;16.73;;;19.10;99.90;;;;;;5052953;28;20061;-74
2022/06/30 01:44:35;;;;;;;20.95;16.65;;;18.70;99.90;;;;;;5044847;28;20032;-75
2022/06/30 01:47:01;;;;;;;18.15;14.80;;;18.80;99.90;;;;;;5060863;28;20383;-74
2022/06/30 01:49:27;;;;;;;20.38;15.05;;;18.90;99.90;;;;;;5062002;28;20028;-74
2022/06/30 01:51:53;;;;;;;17.00;14.02;;;18.80;99.90;;;;;;5060278;28;20024;-75
2022/06/30 01:54:18;;;;;;;18.13;14.60;;;19.00;99.90;;;;;;5061765;28;20025;-75
2022/06/30 01:56:44;;;;;;;21.63;15.18;;;18.80;99.90;;;;;;5074150;28;20028;-75
2022/06/30 01:59:09;;;;;;;17.25;14.60;;;18.80;99.90;;;;;;5043862;28;20028;-75
2022/06/30 02:01:35;;;;;;;20.30;17.25;;;18.80;99.90;;;;;;5060385;28;20091;-75
2022/06/30 02:06:45;;;;;;;19.20;15.30;;;18.50;99.90;;;;;;5057075;28;20036;-75
2022/06/30 02:09:11;;;;;;;18.63;14.27;;;18.70;99.90;;;;;;5057243;28;20017;-74
2022/06/30 02:11:37;;;;;;;21.05;16.23;;;18.70;99.90;;;;;;5057193;28;20230;-73
2022/06/30 02:14:03;;;;;;;20.50;17.05;;;18.70;99.90;;;;;;5054329;28;20033;-74
2022/06/30 02:16:28;;;;;;;20.88;15.50;;;18.60;99.90;;;;;;5067861;28;20372;-75
2022/06/30 02:18:54;;;;;;;18.48;15.30;;;18.60;99.90;;;;;;5045906;28;20056;-75
2022/06/30 02:21:19;;;;;;;19.00;16.98;;;18.40;99.90;;;;;;5056527;28;20036;-75
2022/06/30 02:23:45;;;;;;;19.52;16.65;;;18.30;99.90;;;;;;5046611;28;20052;-74
2022/06/30 02:26:11;;;;;;;19.95;16.75;;;18.40;99.90;;;;;;5049780;28;20025;-75
2022/06/30 02:28:36;;;;;;;19.13;15.00;;;18.40;99.90;;;;;;5063536;28;20442;-75
2022/06/30 02:31:02;;;;;;;18.67;14.63;;;18.50;99.90;;;;;;5052232;28;20027;-75
2022/06/30 02:33:27;;;;;;;18.55;14.23;;;18.60;99.90;;;;;;5055782;28;20028;-74
2022/06/30 02:35:53;;;;;;;20.55;15.48;;;18.60;99.90;;;;;;5040350;28;20059;-74
2022/06/30 02:38:20;;;;;;;18.35;14.93;;;18.50;99.90;;;;;;5062981;28;20021;-75
2022/06/30 02:40:45;;;;;;;21.98;17.73;;;18.50;99.90;;;;;;5057483;28;20033;-74
2022/06/30 02:43:11;;;;;;;20.05;15.60;;;18.40;99.90;;;;;;5053668;28;20083;-74
2022/06/30 02:45:36;;;;;;;22.25;18.42;;;18.40;99.90;;;;;;5069434;28;20103;-74
2022/06/30 02:48:02;;;;;;;19.30;15.10;;;18.40;99.90;;;;;;5064762;28;20150;-75
2022/06/30 02:50:28;;;;;;;19.33;14.82;;;18.30;99.90;;;;;;5066843;28;20020;-75
2022/06/30 02:52:54;;;;;;;17.60;14.43;;;18.40;99.90;;;;;;5062424;28;20051;-74
2022/06/30 02:55:21;;;;;;;17.13;14.75;;;18.70;99.90;;;;;;5037908;28;20048;-76
2022/06/30 02:57:46;;;;;;;22.65;16.83;;;18.40;99.90;;;;;;5059063;28;20471;-76
2022/06/30 03:00:12;;;;;;;19.27;15.73;;;18.40;99.90;;;;;;5062660;28;20044;-76
2022/06/30 03:02:38;;;;;;;19.95;15.75;;;18.30;99.90;;;;;;5063933;28;20025;-77
2022/06/30 03:05:05;;;;;;;20.15;15.23;;;18.40;99.90;;;;;;5048911;28;20048;-76
2022/06/30 03:07:31;;;;;;;18.92;14.40;;;18.30;99.90;;;;;;5062349;28;20386;-76
2022/06/30 03:09:56;;;;;;;17.73;14.23;;;18.40;99.90;;;;;;5058416;28;20100;-76
2022/06/30 03:12:22;;;;;;;15.85;14.15;;;18.70;99.90;;;;;;5061657;28;20437;-76
2022/06/30 03:14:47;;;;;;;20.00;14.60;;;18.30;99.90;;;;;;5041754;28;20029;-76
2022/06/30 03:17:13;;;;;;;19.75;15.23;;;18.30;99.90;;;;;;5064562;28;20025;-76
2022/06/30 03:19:39;;;;;;;18.40;15.32;;;18.30;99.90;;;;;;5066389;28;20029;-76
2022/06/30 03:22:05;;;;;;;21.13;15.52;;;18.30;99.90;;;;;;5061421;28;20040;-76
2022/06/30 03:24:30;;;;;;;20.13;16.02;;;18.20;99.90;;;;;;5059511;28;20025;-75
2022/06/30 03:26:56;;;;;;;19.77;15.57;;;18.10;99.90;;;;;;5044919;28;20016;-76
2022/06/30 03:29:21;;;;;;;19.80;17.15;;;18.10;99.90;;;;;;5051584;28;20032;-76
2022/06/30 03:31:47;;;;;;;19.33;15.73;;;18.00;99.90;;;;;;5061151;28;20032;-75
2022/06/30 03:34:12;;;;;;;19.33;15.38;;;17.80;99.90;;;;;;5052419;28;20032;-76
2022/06/30 03:36:38;;;;;;;18.08;14.90;;;18.00;99.90;;;;;;5043503;28;20020;-77
2022/06/30 03:39:04;;;;;;;17.45;15.45;;;18.00;99.90;;;;;;5057468;28;20522;-75
2022/06/30 03:41:30;;;;;;;17.02;15.23;;;17.90;99.90;;;;;;5052011;28;20032;-77
2022/06/30 03:43:55;;;;;;;15.55;13.50;;;17.90;99.90;;;;;;5064290;28;20494;-75
2022/06/30 03:46:21;;;;;;;19.40;14.10;;;17.80;99.90;;;;;;5037270;28;20017;-75
2022/06/30 03:48:46;;;;;;;18.55;14.10;;;17.90;99.90;;;;;;5052504;28;20028;-74
2022/06/30 03:51:12;;;;;;;18.48;14.77;;;17.90;99.90;;;;;;5060272;28;20021;-73
2022/06/30 03:53:38;;;;;;;18.67;15.90;;;17.90;99.90;;;;;;5058595;28;20033;-74
2022/06/30 03:56:04;;;;;;;19.52;16.83;;;17.90;99.90;;;;;;5039778;28;20083;-76
2022/06/30 03:58:30;;;;;;;19.15;15.88;;;18.10;99.90;;;;;;5050998;28;20021;-76
2022/06/30 04:00:55;;;;;;;18.35;16.25;;;17.60;99.90;;;;;;5063327;28;20082;-76
2022/06/30 04:03:21;;;;;;;18.20;16.05;;;17.50;99.90;;;;;;5065522;28;20540;-74
2022/06/30 04:05:47;;;;;;;16.50;14.77;;;17.70;99.90;;;;;;5056186;28;20025;-76
2022/06/30 04:08:12;;;;;;;16.25;13.07;;;17.80;99.90;;;;;;5061083;28;20024;-74
2022/06/30 04:10:38;;;;;;;17.73;14.40;;;18.00;99.90;;;;;;5042002;28;20021;-75
2022/06/30 04:13:03;;;;;;;16.25;13.38;;;18.10;99.90;;;;;;5058676;28;20693;-74
2022/06/30 04:15:29;;;;;;;16.20;13.90;;;18.20;99.90;;;;;;5063804;28;20025;-74
2022/06/30 04:17:55;;;;;;;20.33;14.45;;;18.30;99.90;;;;;;5047521;28;20501;-74
2022/06/30 04:20:20;;;;;;;21.02;14.35;;;18.50;99.90;;;;;;5051440;28;20021;-75
2022/06/30 04:22:47;;;;;;;21.98;14.50;;;18.60;99.90;;;;;;5051642;28;20099;-73
2022/06/30 04:25:13;;;;;;;18.17;14.02;;;18.60;99.90;;;;;;5060729;28;20033;-75
2022/06/30 04:27:48;;;;;;;19.45;14.88;;;18.70;99.90;;;;;;5055450;28;20151;-75
2022/06/30 04:30:15;;;;;;;15.77;14.00;;;18.90;99.90;;;;;;5051181;28;20483;-74
2022/06/30 04:32:41;;;;;;;19.45;15.18;;;18.90;99.90;;;;;;5051716;28;20024;-75
2022/06/30 04:35:12;;;;;;;23.23;16.35;;;19.30;99.90;;;;;;5051899;28;20646;-75
2022/06/30 04:37:38;;;;;;;22.75;16.98;;;18.80;99.90;;;;;;5051693;28;20033;-75
2022/06/30 04:42:49;;;;;;;18.45;15.45;;;18.40;99.90;;;;;;5064345;28;20057;-75
2022/06/30 04:45:15;;;;;;;17.00;15.20;;;18.30;99.90;;;;;;5055246;28;20029;-74
2022/06/30 04:47:41;;;;;;;20.35;16.23;;;18.60;99.90;;;;;;5067195;28;20092;-75
2022/06/30 04:50:07;;;;;;;18.85;15.88;;;18.70;99.90;;;;;;5045061;28;20025;-73
2022/06/30 04:52:33;;;;;;;18.58;15.20;;;18.60;99.90;;;;;;5037852;28;20105;-72
2022/06/30 04:54:59;;;;;;;18.05;15.73;;;18.70;99.90;;;;;;5051495;28;20056;-74
2022/06/30 04:57:25;;;;;;;17.20;15.13;;;18.70;99.90;;;;;;5050991;28;20036;-73
2022/06/30 04:59:51;;;;;;;17.10;14.35;;;18.90;99.90;;;;;;5051453;28;20025;-74
2022/06/30 05:02:16;;;;;;;23.05;18.63;;;19.10;99.90;;;;;;5050499;28;20060;-74
2022/06/30 05:04:45;;;;;;;22.65;17.30;;;19.30;99.90;;;;;;5051202;28;20434;-74
2022/06/30 05:07:11;;;;;;;28.50;22.42;;;19.20;99.90;;;;;;5051294;28;20025;-73
2022/06/30 05:09:37;;;;;;;29.20;22.05;;;19.30;99.90;;;;;;5033430;28;20024;-73
2022/06/30 05:12:03;;;;;;;25.63;21.23;;;19.30;99.90;;;;;;5050567;28;20056;-73
2022/06/30 05:14:29;;;;;;;27.48;20.92;;;19.30;99.90;;;;;;5051094;28;20029;-73
2022/06/30 05:16:54;;;;;;;27.30;20.85;;;19.40;99.90;;;;;;5049249;28;20043;-73
2022/06/30 05:19:20;;;;;;;23.85;20.30;;;19.40;99.90;;;;;;5054975;28;20031;-71
2022/06/30 05:21:45;;;;;;;27.73;22.42;;;19.20;99.90;;;;;;5042275;28;20029;-71
2022/06/30 05:26:55;;;;;;;27.70;21.52;;;19.30;99.90;;;;;;5044266;28;20036;-70
2022/06/30 05:29:21;;;;;;;27.95;21.90;;;19.50;99.90;;;;;;5055116;28;20029;-71
2022/06/30 05:31:46;;;;;;;30.38;22.50;;;19.70;99.90;;;;;;5054407;28;20523;-71
2022/06/30 05:34:12;;;;;;;26.10;21.98;;;19.80;99.90;;;;;;5057072;28;20033;-70
2022/06/30 05:36:37;;;;;;;27.50;21.15;;;19.80;99.90;;;;;;5074890;28;20040;-71
2022/06/30 05:39:03;;;;;;;26.70;20.83;;;20.00;99.90;;;;;;5056779;28;20024;-71
2022/06/30 05:41:28;;;;;;;24.20;18.55;;;20.20;99.90;;;;;;5074165;28;20035;-71
2022/06/30 05:43:54;;;;;;;23.85;19.45;;;20.60;99.90;;;;;;5059600;28;20048;-70
2022/06/30 05:46:20;;;;;;;26.75;19.75;;;20.50;99.90;;;;;;5054822;28;20029;-71
2022/06/30 05:48:45;;;;;;;23.75;19.83;;;20.50;99.90;;;;;;5054658;28;20021;-71
2022/06/30 05:51:11;;;;;;;26.98;19.92;;;20.40;99.90;;;;;;5061938;28;20086;-72
2022/06/30 05:53:37;;;;;;;22.40;19.00;;;20.50;99.90;;;;;;5060142;28;20079;-71
2022/06/30 05:56:03;;;;;;;21.92;18.20;;;20.70;99.90;;;;;;5054601;28;20017;-71
2022/06/30 05:58:28;;;;;;;20.40;17.10;;;20.90;99.90;;;;;;5055802;28;20478;-71
2022/06/30 06:00:54;;;;;;;21.23;16.35;;;21.20;99.90;;;;;;5073633;28;20070;-70
2022/06/30 06:03:20;;;;;;;17.67;15.80;;;21.50;99.90;;;;;;5054280;28;20060;-71
2022/06/30 06:05:45;;;;;;;17.42;14.40;;;21.50;99.90;;;;;;5054503;28;20029;-71
2022/06/30 06:08:12;;;;;;;18.02;15.38;;;21.80;99.90;;;;;;5053579;28;20035;-71
2022/06/30 06:10:38;;;;;;;17.92;16.02;;;21.60;99.90;;;;;;5053748;28;20146;-71
2022/06/30 06:13:04;;;;;;;17.52;15.05;;;21.60;99.90;;;;;;5053300;28;20033;-71
2022/06/30 06:15:30;;;;;;;17.88;14.95;;;21.60;99.90;;;;;;5052481;28;20025;-71
2022/06/30 06:17:56;;;;;;;17.80;15.73;;;21.90;99.90;;;;;;5054172;28;20025;-71
2022/06/30 06:20:22;;;;;;;16.73;14.95;;;21.80;99.90;;;;;;5053545;28;20021;-71
2022/06/30 06:22:47;;;;;;;18.05;14.48;;;21.80;99.90;;;;;;5053781;28;20107;-71
2022/06/30 06:25:14;;;;;;;18.42;14.20;;;22.00;99.90;;;;;;5054130;28;20501;-70
2022/06/30 06:27:40;;;;;;;19.02;13.75;;;22.30;99.90;;;;;;5036055;28;20025;-71
2022/06/30 06:30:08;;;;;;;15.80;13.02;;;22.10;99.90;;;;;;5053240;28;20021;-71
2022/06/30 06:32:35;;;;;;;18.23;13.85;;;22.20;99.90;;;;;;5053231;28;20032;-70
2022/06/30 06:35:00;;;;;;;18.35;14.15;;;22.20;99.90;;;;;;5053779;28;20119;-71
2022/06/30 06:37:26;;;;;;;15.50;12.80;;;22.20;99.90;;;;;;5050808;28;20084;-71
2022/06/30 06:39:52;;;;;;;16.33;12.98;;;22.20;99.90;;;;;;5053619;28;20025;-71
2022/06/30 06:42:18;;;;;;;14.30;12.50;;;22.20;99.90;;;;;;5051421;28;20029;-71
2022/06/30 06:44:43;;;;;;;13.02;11.68;;;22.40;99.90;;;;;;5052536;28;20111;-71
2022/06/30 06:47:09;;;;;;;15.68;11.70;;;22.60;99.90;;;;;;5053474;28;20043;-71
2022/06/30 06:49:35;;;;;;;14.05;12.27;;;22.90;99.90;;;;;;5053470;28;20494;-71
2022/06/30 06:52:01;;;;;;;12.98;11.68;;;23.00;99.90;;;;;;5052847;28;20079;-71
2022/06/30 06:54:26;;;;;;;14.57;11.85;;;23.00;99.90;;;;;;5053350;28;20104;-71
2022/06/30 06:56:52;;;;;;;13.38;11.52;;;23.10;99.90;;;;;;5053303;28;20395;-71
2022/06/30 06:59:18;;;;;;;15.30;12.27;;;23.40;99.90;;;;;;5053432;28;20031;-72
2022/06/30 07:01:44;;;;;;;13.15;11.73;;;23.10;99.90;;;;;;5048621;28;20037;-71
2022/06/30 07:04:09;;;;;;;14.65;12.05;;;23.00;99.90;;;;;;5073259;28;20032;-71
2022/06/30 07:06:36;;;;;;;13.48;11.57;;;23.00;99.90;;;;;;5073173;28;20027;-71
2022/06/30 07:09:02;;;;;;;13.70;11.25;;;23.20;99.90;;;;;;5073184;28;20028;-71
2022/06/30 07:11:28;;;;;;;14.38;11.95;;;23.20;99.90;;;;;;5072422;28;20112;-71
2022/06/30 07:13:54;;;;;;;15.20;11.60;;;23.10;99.90;;;;;;5073057;28;20509;-71
2022/06/30 07:16:19;;;;;;;14.25;10.95;;;23.50;99.90;;;;;;5055112;28;20588;-71
2022/06/30 07:18:45;;;;;;;12.40;11.05;;;23.60;99.90;;;;;;5073004;28;20044;-71
2022/06/30 07:21:11;;;;;;;14.55;11.60;;;24.00;99.90;;;;;;5072085;28;20024;-71
2022/06/30 07:23:36;;;;;;;11.90;10.68;;;23.80;99.90;;;;;;5072839;28;20028;-71
2022/06/30 07:26:02;;;;;;;13.07;10.60;;;24.20;99.90;;;;;;5072704;28;20435;-71
2022/06/30 07:28:28;;;;;;;12.68;10.52;;;24.00;99.90;;;;;;5072905;28;20157;-71
2022/06/30 07:30:53;;;;;;;11.70;10.60;;;24.20;99.90;;;;;;5043754;28;20021;-71
2022/06/30 07:33:19;;;;;;;17.52;10.85;;;24.40;99.90;;;;;;5046016;28;20032;-70
2022/06/30 07:35:45;;;;;;;12.82;10.70;;;23.90;99.90;;;;;;5052596;28;20039;-71
2022/06/30 07:38:12;;;;;;;12.85;11.43;;;24.00;99.90;;;;;;5052528;28;20485;-71
2022/06/30 07:40:37;;;;;;;13.25;11.55;;;24.30;99.90;;;;;;5044916;28;20049;-71
2022/06/30 07:43:03;;;;;;;13.60;10.93;;;24.30;99.90;;;;;;5052456;28;20060;-71
2022/06/30 07:45:29;;;;;;;13.52;10.43;;;24.40;99.90;;;;;;5049998;28;20466;-71
2022/06/30 07:47:54;;;;;;;11.82;10.45;;;24.30;99.90;;;;;;5052340;28;20446;-71
2022/06/30 07:50:20;;;;;;;10.95;9.95;;;24.50;99.90;;;;;;5052916;28;20025;-71
2022/06/30 07:52:46;;;;;;;11.85;10.65;;;24.50;99.90;;;;;;5052252;28;20024;-72
2022/06/30 07:55:12;;;;;;;12.32;11.02;;;24.50;99.90;;;;;;5052181;28;20080;-71
2022/06/30 07:57:42;;;;;;;11.75;9.30;;;24.50;99.90;;;;;;5052612;28;20021;-71
2022/06/30 08:00:10;;;;;;;11.07;8.82;;;24.90;99.90;;;;;;5052543;28;20021;-72
2022/06/30 08:02:36;;;;;;;9.73;8.73;;;25.30;99.90;;;;;;5054999;28;20024;-71
2022/06/30 08:05:02;;;;;;;11.43;10.23;;;25.60;99.90;;;;;;5072000;28;20020;-71
2022/06/30 08:07:27;;;;;;;10.25;8.23;;;25.20;99.90;;;;;;5058396;28;20021;-71
2022/06/30 08:09:53;;;;;;;11.07;8.65;;;25.40;99.90;;;;;;5051912;28;20028;-71
2022/06/30 08:12:18;;;;;;;10.23;8.80;;;25.60;99.90;;;;;;5051427;28;20044;-71
2022/06/30 08:14:44;;;;;;;12.68;9.75;;;25.60;99.90;;;;;;5034049;28;20024;-71
2022/06/30 08:17:10;;;;;;;11.43;9.00;;;25.60;99.90;;;;;;5051943;28;20414;-71
2022/06/30 08:19:35;;;;;;;10.00;8.18;;;25.20;99.90;;;;;;5032553;28;20103;-71
2022/06/30 08:22:01;;;;;;;12.02;9.43;;;25.30;99.90;;;;;;5046446;28;20031;-71
2022/06/30 08:24:27;;;;;;;13.38;9.05;;;25.40;99.90;;;;;;5051694;28;20457;-71
2022/06/30 08:26:52;;;;;;;11.05;9.93;;;26.00;99.90;;;;;;5045121;28;20018;-71
2022/06/30 08:29:18;;;;;;;11.88;9.40;;;25.70;99.90;;;;;;5051692;28;20016;-71
2022/06/30 08:31:44;;;;;;;10.57;9.02;;;25.50;99.90;;;;;;5051154;28;20025;-72
2022/06/30 08:34:09;;;;;;;9.60;8.27;;;25.90;99.90;;;;;;5051385;28;20120;-71
2022/06/30 08:36:35;;;;;;;10.15;8.95;;;26.50;99.90;;;;;;5051599;28;20025;-71
2022/06/30 08:39:01;;;;;;;12.00;9.07;;;26.60;99.90;;;;;;5051549;28;20072;-71
2022/06/30 08:44:12;;;;;;;10.43;8.77;;;26.10;99.90;;;;;;5051522;28;20030;-71
2022/06/30 08:46:38;;;;;;;9.93;8.00;;;26.20;99.90;;;;;;5045310;28;20040;-74
2022/06/30 08:49:05;;;;;;;11.77;9.02;;;26.10;99.90;;;;;;5049513;28;20059;-71
2022/06/30 08:51:34;;;;;;;10.10;8.20;;;25.50;99.90;;;;;;5049153;28;20101;-71
2022/06/30 08:54:01;;;;;;;9.82;8.38;;;25.60;99.90;;;;;;5050561;28;20025;-71
2022/06/30 08:56:32;;;;;;;9.90;8.48;;;25.50;99.90;;;;;;5051379;28;20048;-71
2022/06/30 08:58:58;;;;;;;9.35;8.02;;;25.20;99.90;;;;;;5051360;28;20429;-71
2022/06/30 09:01:28;;;;;;;10.88;8.63;;;25.60;99.90;;;;;;5050599;28;20031;-71
2022/06/30 09:03:55;;;;;;;8.85;8.02;;;25.90;99.90;;;;;;5051043;28;20021;-71
2022/06/30 09:06:21;;;;;;;11.80;8.27;;;26.30;99.90;;;;;;5051381;28;20471;-71
2022/06/30 09:08:46;;;;;;;8.93;8.02;;;26.10;99.90;;;;;;5048935;28;20108;-71
2022/06/30 09:11:12;;;;;;;10.43;8.13;;;26.10;99.90;;;;;;5048904;28;20025;-71
2022/06/30 09:13:40;;;;;;;9.77;7.68;;;26.10;99.90;;;;;;5041866;28;20506;-71
2022/06/30 09:16:06;;;;;;;10.63;7.90;;;26.60;99.90;;;;;;5053562;28;20580;-71
2022/06/30 09:18:32;;;;;;;8.52;7.50;;;27.10;99.90;;;;;;5051189;28;20025;-71
2022/06/30 09:20:59;;;;;;;8.02;7.22;;;27.50;99.90;;;;;;5032672;28;20233;-71
2022/06/30 09:23:28;;;;;;;10.68;7.22;;;27.50;99.90;;;;;;5050991;28;20021;-71
2022/06/30 09:25:56;;;;;;;8.57;7.35;;;27.80;99.90;;;;;;5054774;28;20021;-71
2022/06/30 09:28:55;;;;;;;9.93;7.50;;;28.10;99.90;;;;;;5051189;28;20025;-71
2022/06/30 09:31:35;;;;;;;9.50;7.40;;;28.00;99.90;;;;;;5031579;28;20112;-71
2022/06/30 09:34:22;;;;;;;9.27;7.22;;;28.30;99.90;;;;;;5050789;28;20031;-71
2022/06/30 09:36:52;;;;;;;9.00;8.07;;;28.00;99.90;;;;;;5051078;28;20021;-71
2022/06/30 09:39:20;;;;;;;9.50;7.97;;;27.70;99.90;;;;;;5050762;28;20025;-71
2022/06/30 09:41:47;;;;;;;9.55;7.35;;;27.50;99.90;;;;;;5050279;28;20032;-71
2022/06/30 09:44:16;;;;;;;9.00;7.40;;;27.40;99.90;;;;;;5046816;28;20485;-71
2022/06/30 09:46:59;;;;;;;10.57;7.47;;;27.60;99.90;;;;;;5050818;28;20021;-71
2022/06/30 09:49:36;;;;;;;8.38;7.47;;;27.90;99.90;;;;;;5038040;28;20021;-71
2022/06/30 09:52:04;;;;;;;9.73;7.50;;;28.30;99.90;;;;;;5050311;28;20505;-71
2022/06/30 09:54:35;;;;;;;8.55;7.65;;;27.30;99.90;;;;;;5032905;28;20037;-71
2022/06/30 09:57:06;;;;;;;8.32;7.20;;;26.80;99.90;;;;;;5050894;28;20052;-72
2022/06/30 09:59:32;;;;;;;8.32;6.65;;;26.40;99.90;;;;;;5050848;28;20043;-71
2022/06/30 10:02:01;;;;;;;8.40;7.35;;;26.40;99.90;;;;;;5048555;28;20047;-71
2022/06/30 10:04:27;;;;;;;9.13;7.32;;;26.60;99.90;;;;;;5054643;28;20455;-71
2022/06/30 10:06:53;;;;;;;9.43;6.72;;;26.60;99.90;;;;;;5074353;28;20052;-71
2022/06/30 10:09:19;;;;;;;8.90;8.00;;;26.60;99.90;;;;;;5074334;28;20025;-71
2022/06/30 10:11:48;;;;;;;8.20;6.68;;;27.30;99.90;;;;;;5073629;28;20027;-71
2022/06/30 10:14:15;;;;;;;9.00;7.18;;;27.70;99.90;;;;;;5074290;28;20625;-71
2022/06/30 10:16:43;;;;;;;11.02;7.22;;;28.30;99.90;;;;;;5074159;28;20036;-71
2022/06/30 10:19:13;;;;;;;9.00;6.85;;;28.40;99.90;;;;;;5074222;28;20031;-71
2022/06/30 10:21:40;;;;;;;10.27;7.18;;;28.70;99.90;;;;;;5073435;28;20036;-71
2022/06/30 10:24:06;;;;;;;7.38;6.50;;;28.90;99.90;;;;;;5074076;28;20054;-71
2022/06/30 10:29:18;;;;;;;8.45;6.35;;;28.90;99.90;;;;;;5048834;28;20031;-71
2022/06/30 10:32:14;;;;;;;12.57;6.60;;;29.40;99.90;;;;;;5053289;28;20033;-71
2022/06/30 10:34:47;;;;;;;8.60;6.30;;;29.40;99.90;;;;;;5030646;28;20490;-71
2022/06/30 10:37:21;;;;;;;6.97;6.28;;;29.10;99.90;;;;;;5054180;28;20387;-71
2022/06/30 10:40:02;;;;;;;8.90;7.35;;;28.40;99.90;;;;;;5052826;28;20064;-71
2022/06/30 10:42:44;;;;;;;10.13;6.70;;;28.50;99.90;;;;;;5049099;28;20041;-71
2022/06/30 10:45:28;;;;;;;7.53;6.30;;;28.50;99.90;;;;;;5051392;28;20017;-71
2022/06/30 10:48:05;;;;;;;7.18;5.80;;;28.80;99.90;;;;;;5050262;28;20017;-71
2022/06/30 10:50:42;;;;;;;8.57;6.15;;;28.70;99.90;;;;;;5037092;28;20023;-71
2022/06/30 10:53:16;;;;;;;10.32;6.70;;;29.20;99.90;;;;;;5069796;28;20390;-70
2022/06/30 10:56:03;;;;;;;7.82;6.53;;;29.20;99.90;;;;;;5054992;28;20024;-71
2022/06/30 10:58:29;;;;;;;6.68;6.07;;;28.80;99.90;;;;;;5056137;28;20120;-70
2022/06/30 11:00:59;;;;;;;6.35;5.70;;;28.50;99.90;;;;;;5061403;28;20092;-71
2022/06/30 11:03:40;;;;;;;7.68;5.70;;;28.00;99.90;;;;;;5061795;28;20391;-71
2022/06/30 11:06:11;;;;;;;8.20;6.15;;;27.80;99.90;;;;;;5061340;28;20021;-71
2022/06/30 11:08:39;;;;;;;9.13;6.18;;;28.10;99.90;;;;;;5061428;28;20102;-71
2022/06/30 11:11:23;;;;;;;9.02;5.70;;;28.70;99.90;;;;;;5061064;28;20100;-71
2022/06/30 11:13:51;;;;;;;7.38;5.53;;;29.20;99.90;;;;;;5057297;28;20035;-71
2022/06/30 11:16:19;;;;;;;7.15;6.07;;;30.20;99.90;;;;;;5051233;28;20365;-71
2022/06/30 11:18:45;;;;;;;7.15;5.80;;;30.00;99.90;;;;;;5068038;28;20087;-71
2022/06/30 11:21:11;;;;;;;7.03;5.63;;;29.80;99.90;;;;;;5061134;28;20067;-71
2022/06/30 11:23:44;;;;;;;9.70;6.00;;;30.30;99.90;;;;;;5065687;28;20049;-71
2022/06/30 11:28:57;;;;;;;6.53;5.13;;;30.70;99.90;;;;;;5066802;28;20166;-71
2022/06/30 11:31:35;;;;;;;7.18;5.70;;;30.80;99.90;;;;;;5063507;28;20075;-71
2022/06/30 11:34:04;;;;;;;9.20;5.05;;;30.50;99.90;;;;;;5049107;28;20035;-71
2022/06/30 11:36:31;;;;;;;6.55;5.60;;;29.80;99.90;;;;;;5063723;28;20074;-71
2022/06/30 11:39:06;;;;;;;7.18;4.93;;;30.50;99.90;;;;;;5063988;28;20019;-71
2022/06/30 11:44:18;;;;;;;10.68;4.72;;;30.60;99.90;;;;;;5062587;28;20179;-71
2022/06/30 11:46:50;;;;;;;4.53;4.05;;;30.10;99.90;;;;;;5064035;28;20502;-71
2022/06/30 11:49:16;;;;;;;6.20;4.68;;;30.40;99.90;;;;;;5061338;28;20016;-71
2022/06/30 11:51:43;;;;;;;8.48;5.10;;;31.00;99.90;;;;;;5063402;28;20498;-71
2022/06/30 11:54:09;;;;;;;8.68;5.35;;;31.20;99.90;;;;;;5063101;28;20067;-71
2022/06/30 11:56:55;;;;;;;7.85;4.55;;;31.40;99.90;;;;;;5061935;28;20032;-71
2022/06/30 11:59:21;;;;;;;7.68;4.55;;;30.80;99.90;;;;;;5031474;28;20078;-71
2022/06/30 12:02:00;;;;;;;8.65;4.80;;;30.00;99.90;;;;;;5051705;28;20032;-71
2022/06/30 12:04:27;;;;;;;6.70;4.63;;;30.20;99.90;;;;;;5051987;28;20028;-71
2022/06/30 12:06:52;;;;;;;5.05;4.53;;;30.40;99.90;;;;;;5063106;28;20021;-71
2022/06/30 12:09:18;;;;;;;6.43;5.05;;;30.70;99.90;;;;;;5048812;28;20024;-71
2022/06/30 12:11:45;;;;;;;8.27;4.82;;;31.40;99.90;;;;;;5058638;28;20150;-71
2022/06/30 12:14:11;;;;;;;7.10;4.80;;;30.60;99.90;;;;;;5062488;28;20029;-71
2022/06/30 12:16:37;;;;;;;7.10;4.65;;;30.60;99.90;;;;;;5062685;28;20120;-71
2022/06/30 12:19:03;;;;;;;5.82;4.53;;;31.20;99.90;;;;;;5067478;28;20056;-71
2022/06/30 12:21:29;;;;;;;7.70;4.45;;;31.30;99.90;;;;;;5060490;28;20037;-71
2022/06/30 12:23:55;;;;;;;7.20;4.72;;;31.60;99.90;;;;;;5066001;28;20028;-70
2022/06/30 12:26:22;;;;;;;6.65;4.70;;;32.60;99.90;;;;;;5059222;28;20098;-71
2022/06/30 12:28:55;;;;;;;6.20;4.63;;;32.90;99.90;;;;;;5064256;28;20047;-71
2022/06/30 12:31:28;;;;;;;7.53;5.35;;;32.50;99.90;;;;;;5060278;28;20031;-71
2022/06/30 12:33:56;;;;;;;7.60;5.20;;;31.90;99.00;;;;;;5054551;28;20025;-71
2022/06/30 12:36:30;;;;;;;6.95;5.43;;;31.50;99.30;;;;;;5051368;28;20566;-70
2022/06/30 12:38:55;;;;;;;8.77;5.15;;;30.60;99.90;;;;;;5062208;28;20025;-71
2022/06/30 12:41:23;;;;;;;10.00;4.72;;;30.40;99.90;;;;;;5062288;28;20495;-71
2022/06/30 12:43:50;;;;;;;7.82;5.30;;;30.30;99.90;;;;;;5061722;28;20025;-71
2022/06/30 12:46:17;;;;;;;10.40;5.60;;;30.00;99.90;;;;;;5055747;28;20418;-71
2022/06/30 12:48:42;;;;;;;10.38;5.40;;;30.50;99.90;;;;;;5051157;28;20402;-71
2022/06/30 12:51:13;;;;;;;8.73;5.00;;;30.90;99.80;;;;;;5047017;28;20033;-71
2022/06/30 12:53:40;;;;;;;7.10;5.07;;;30.50;99.90;;;;;;5051233;28;20112;-71
2022/06/30 12:56:05;;;;;;;8.23;5.57;;;30.40;99.90;;;;;;5050875;28;20134;-71